Archival Weather

Aeroparque Jorge Newbery

Buenos Aires, Argentina (SABE)

Report from: Thursday, September 21, 2023 11:00 PM -03
Current time: Thursday, July 18, 2024 11:20 PM -03

Current weather – Weather history – Daily summaries
Weather forecast

Temperature18.0°C (64.4°F)
Dew point16.0°C (60.8°F)
Winds 1 kts (0.5 m/s, 1.2 mph) Vrb
Winds variableWinds variable
Visibility5 mi. (8 km)
Clouds Scattered clouds 3,000 ft. (914 m)
Altimeter29.85 in.Hg (1011 mB)
Relative humidity88 %
Density altitude679 ft. (207 m)
Remarks Corrected report
No significant changes expected in the next two hours
Flight conditions Marginal Visual Meteorological Conditions
Raw dataCOR SABE 220200Z VRB01KT 8000 SCT030 18/16 Q1011 NOSIG RMK PP000
An error has occurred. This application may no longer respond until reloaded. Reload 🗙